createdAt,value
2018-04-14T00:02:05.320Z,5.30
2018-04-14T00:04:32.799Z,5.20
2018-04-14T00:07:00.295Z,5.20
2018-04-14T00:09:28.532Z,5.10
2018-04-14T00:11:56.272Z,5.10
2018-04-14T00:14:23.767Z,5.10
2018-04-14T00:16:52.024Z,5.10
2018-04-14T00:19:19.495Z,5.10
2018-04-14T00:21:46.994Z,5.10
2018-04-14T00:24:14.468Z,5.00
2018-04-14T00:26:41.944Z,5.00
2018-04-14T00:29:09.448Z,5.00
2018-04-14T00:31:37.684Z,5.00
2018-04-14T00:34:05.180Z,5.00
2018-04-14T00:36:33.440Z,5.00
2018-04-14T00:39:01.020Z,4.90
2018-04-14T00:41:29.269Z,4.90
2018-04-14T00:43:56.760Z,4.90
2018-04-14T00:46:24.996Z,4.80
2018-04-14T00:48:52.479Z,4.80
2018-04-14T00:51:20.743Z,4.70
2018-04-14T00:53:48.226Z,4.70
2018-04-14T00:56:15.700Z,4.70
2018-04-14T00:58:43.488Z,4.70
2018-04-14T01:01:10.976Z,4.70
2018-04-14T01:03:38.481Z,4.70
2018-04-14T01:06:06.004Z,4.60
2018-04-14T01:08:34.280Z,4.50
2018-04-14T01:11:02.531Z,4.50
2018-04-14T01:13:30.028Z,4.50
2018-04-14T01:15:58.264Z,4.50
2018-04-14T01:18:27.268Z,4.50
2018-04-14T01:20:56.247Z,4.50
2018-04-14T01:23:23.721Z,4.50
2018-04-14T01:25:51.215Z,4.50
2018-04-14T01:28:18.695Z,4.40
2018-04-14T01:30:46.188Z,4.40
2018-04-14T01:33:13.668Z,4.30
2018-04-14T01:35:41.911Z,4.30
2018-04-14T01:38:09.400Z,4.30
2018-04-14T01:40:37.644Z,4.20
2018-04-14T01:43:05.146Z,4.20
2018-04-14T01:45:32.620Z,4.20
2018-04-14T01:48:00.095Z,4.20
2018-04-14T01:50:27.607Z,4.20
2018-04-14T01:52:55.848Z,4.20
2018-04-14T01:55:23.335Z,4.20
2018-04-14T01:57:51.591Z,4.00
2018-04-14T02:00:19.064Z,4.00
2018-04-14T02:02:47.339Z,4.00
2018-04-14T02:05:15.582Z,4.00
2018-04-14T02:07:43.321Z,4.00
2018-04-14T02:10:10.805Z,4.00
2018-04-14T02:12:38.279Z,3.90
2018-04-14T02:15:06.521Z,3.90
2018-04-14T02:17:34.671Z,3.90
2018-04-14T02:20:03.486Z,3.90
2018-04-14T02:22:30.960Z,3.80
2018-04-14T02:24:58.451Z,3.80
2018-04-14T02:27:26.696Z,3.80
2018-04-14T02:29:54.172Z,3.80
2018-04-14T02:32:22.452Z,3.80
2018-04-14T02:34:50.692Z,3.80
2018-04-14T02:37:18.188Z,3.80
2018-04-14T02:39:46.460Z,3.70
2018-04-14T02:42:14.705Z,3.60
2018-04-14T02:44:42.192Z,3.60
2018-04-14T02:47:10.439Z,3.60
2018-04-14T02:49:38.064Z,3.60
2018-04-14T02:52:05.552Z,3.60
2018-04-14T02:54:33.039Z,3.50
2018-04-14T02:57:01.297Z,3.50
2018-04-14T02:59:28.855Z,3.50
2018-04-14T03:01:56.435Z,3.50
2018-04-14T03:04:24.682Z,3.50
2018-04-14T03:06:52.160Z,3.50
2018-04-14T03:09:19.681Z,3.50
2018-04-14T03:11:47.168Z,3.60
2018-04-14T03:14:14.904Z,3.60
2018-04-14T03:16:42.447Z,3.60
2018-04-14T03:19:09.959Z,3.60
2018-04-14T03:21:37.453Z,3.50
2018-04-14T03:24:04.927Z,3.50
2018-04-14T03:26:32.437Z,3.50
2018-04-14T03:29:00.677Z,3.40
2018-04-14T03:31:28.152Z,3.40
2018-04-14T03:33:55.644Z,3.50
2018-04-14T03:36:23.183Z,3.50
2018-04-14T03:38:51.448Z,3.40
2018-04-14T03:41:18.923Z,3.40
2018-04-14T03:43:47.165Z,3.30
2018-04-14T03:46:14.671Z,3.30
2018-04-14T03:48:42.212Z,3.30
2018-04-14T03:51:10.480Z,3.30
2018-04-14T03:53:38.758Z,3.30
2018-04-14T03:56:07.284Z,3.30
2018-04-14T03:58:35.716Z,3.20
2018-04-14T04:01:03.951Z,3.20
2018-04-14T04:03:31.504Z,3.20
2018-04-14T04:05:59.668Z,3.20
2018-04-14T04:08:27.176Z,3.10
2018-04-14T04:10:54.744Z,3.10
2018-04-14T04:13:23.019Z,3.10
2018-04-14T04:15:51.284Z,3.00
2018-04-14T04:18:30.773Z,3.00
2018-04-14T04:21:10.243Z,3.00
2018-04-14T04:23:49.709Z,2.90
2018-04-14T04:26:17.971Z,2.90
2018-04-14T04:28:45.549Z,2.80
2018-04-14T04:31:13.932Z,2.90
2018-04-14T04:33:42.187Z,3.00
2018-04-14T04:36:09.665Z,3.00
2018-04-14T04:38:38.023Z,3.10
2018-04-14T04:41:05.508Z,3.10
2018-04-14T04:43:32.992Z,3.10
2018-04-14T04:46:00.480Z,3.20
2018-04-14T04:48:27.956Z,3.20
2018-04-14T04:50:56.225Z,3.30
2018-04-14T04:53:23.721Z,3.20
2018-04-14T04:55:51.219Z,3.20
2018-04-14T04:58:18.899Z,3.20
2018-04-14T05:00:46.384Z,3.40
2018-04-14T05:03:13.901Z,3.50
2018-04-14T05:05:41.376Z,3.50
2018-04-14T05:08:08.876Z,3.60
2018-04-14T05:10:36.396Z,3.70
2018-04-14T05:13:04.468Z,4.40
2018-04-14T05:15:33.200Z,7.80
2018-04-14T05:18:00.711Z,7.60
2018-04-14T05:20:28.450Z,9.00
2018-04-14T05:22:56.029Z,10.20
2018-04-14T05:25:24.299Z,10.20
2018-04-14T05:27:52.228Z,10.90
2018-04-14T05:30:19.727Z,11.70
2018-04-14T05:32:47.205Z,12.70
2018-04-14T05:35:15.448Z,13.90
2018-04-14T05:37:43.716Z,14.60
2018-04-14T05:40:11.252Z,14.50
2018-04-14T05:42:39.113Z,15.30
2018-04-14T05:45:06.883Z,15.10
2018-04-14T05:47:34.360Z,14.70
2018-04-14T05:50:01.881Z,14.40
2018-04-14T05:52:29.760Z,13.80
2018-04-14T05:54:59.224Z,14.50
2018-04-14T05:57:27.492Z,14.70
2018-04-14T05:59:54.963Z,14.70
2018-04-14T06:02:23.579Z,14.20
2018-04-14T06:04:52.340Z,14.20
2018-04-14T06:07:20.004Z,14.80
2018-04-14T06:09:47.512Z,15.20
2018-04-14T06:12:15.018Z,14.20
2018-04-14T06:14:43.422Z,14.70
2018-04-14T06:17:12.151Z,14.70
2018-04-14T06:19:40.424Z,18.00
2018-04-14T06:22:08.722Z,18.80
2018-04-14T06:24:36.187Z,18.70
2018-04-14T06:27:04.439Z,19.30
2018-04-14T06:29:32.687Z,19.70
2018-04-14T06:32:00.184Z,19.70
2018-04-14T06:34:28.428Z,20.30
2018-04-14T06:36:55.903Z,20.20
2018-04-14T06:39:23.519Z,20.60
2018-04-14T06:41:51.032Z,20.60
2018-04-14T06:44:18.508Z,20.90
2018-04-14T06:46:46.768Z,21.90
2018-04-14T06:49:15.009Z,22.00
2018-04-14T06:51:42.484Z,22.00
2018-04-14T06:54:09.972Z,22.00
2018-04-14T06:56:37.519Z,22.70
2018-04-14T06:59:05.798Z,23.70
2018-04-14T07:01:34.271Z,24.10
2018-04-14T07:04:02.518Z,24.20
2018-04-14T07:06:29.996Z,24.20
2018-04-14T07:08:57.572Z,24.40
2018-04-14T07:11:26.192Z,24.90
2018-04-14T07:13:53.695Z,24.90
2018-04-14T07:16:22.313Z,25.40
2018-04-14T07:18:52.295Z,25.80
2018-04-14T07:21:19.789Z,26.10
2018-04-14T07:23:47.272Z,25.90
2018-04-14T07:26:14.768Z,26.30
2018-04-14T07:28:42.484Z,26.70
2018-04-14T07:31:09.984Z,26.60
2018-04-14T07:33:37.492Z,26.50
2018-04-14T07:36:04.968Z,26.90
2018-04-14T07:38:32.459Z,26.20
2018-04-14T07:40:59.937Z,26.60
2018-04-14T07:43:28.206Z,23.30
2018-04-14T07:45:56.448Z,25.20
2018-04-14T07:48:23.933Z,25.20
2018-04-14T07:50:52.188Z,25.60
2018-04-14T07:53:19.669Z,25.60
2018-04-14T07:55:47.927Z,26.60
2018-04-14T08:00:47.498Z,27.40
2018-04-14T08:03:15.016Z,26.90
2018-04-14T08:05:42.495Z,26.40
2018-04-14T08:08:10.752Z,25.80
2018-04-14T08:10:38.996Z,26.50
2018-04-14T08:13:06.497Z,26.60
2018-04-14T08:15:34.744Z,26.40
2018-04-14T08:18:02.983Z,26.60
2018-04-14T08:20:30.478Z,26.60
2018-04-14T08:22:57.960Z,27.10
2018-04-14T08:25:26.232Z,26.80
2018-04-14T08:27:54.475Z,26.90
2018-04-14T08:30:23.087Z,26.70
2018-04-14T08:32:51.380Z,26.70
2018-04-14T08:35:18.915Z,26.70
2018-04-14T08:37:47.179Z,26.10
2018-04-14T08:40:14.652Z,26.10
2018-04-14T08:42:42.903Z,23.00
2018-04-14T08:45:11.900Z,22.90
2018-04-14T08:47:39.371Z,22.90
2018-04-14T08:50:08.098Z,21.30
2018-04-14T08:52:35.590Z,21.30
2018-04-14T08:55:03.172Z,21.50
2018-04-14T08:57:30.660Z,20.80
2018-04-14T08:59:58.271Z,20.80
2018-04-14T09:02:25.907Z,21.40
2018-04-14T09:04:53.408Z,22.10
2018-04-14T09:07:21.685Z,22.50
2018-04-14T09:09:49.948Z,22.40
2018-04-14T09:12:17.467Z,22.40
2018-04-14T09:14:44.964Z,22.80
2018-04-14T09:17:13.576Z,23.60
2018-04-14T09:19:42.188Z,24.10
2018-04-14T09:25:12.609Z,24.30
2018-04-14T09:27:42.689Z,24.60
2018-04-14T09:30:10.928Z,24.60
2018-04-14T09:32:38.429Z,24.60
2018-04-14T09:35:06.686Z,24.30
2018-04-14T09:37:34.411Z,24.30
2018-04-14T09:40:01.906Z,24.80
2018-04-14T09:42:29.384Z,25.10
2018-04-14T09:44:57.650Z,25.80
2018-04-14T09:47:25.892Z,25.70
2018-04-14T09:49:53.364Z,25.70
2018-04-14T09:52:20.861Z,26.00
2018-04-14T09:54:48.406Z,26.10
2018-04-14T09:57:15.897Z,26.10
2018-04-14T09:59:43.371Z,26.00
2018-04-14T10:02:10.863Z,25.70
2018-04-14T10:04:38.584Z,25.60
2018-04-14T10:07:06.343Z,25.00
2018-04-14T10:09:33.819Z,24.60
2018-04-14T10:12:01.309Z,23.50
2018-04-14T10:14:29.026Z,23.40
2018-04-14T10:16:56.519Z,23.80
2018-04-14T10:19:24.240Z,23.90
2018-04-14T10:21:52.003Z,24.10
2018-04-14T10:24:19.524Z,24.40
2018-04-14T10:26:47.768Z,25.60
2018-04-14T10:29:15.259Z,25.60
2018-04-14T10:31:43.499Z,25.90
2018-04-14T10:34:11.330Z,25.90
2018-04-14T10:36:38.888Z,26.40
2018-04-14T10:39:06.408Z,26.60
2018-04-14T10:41:34.663Z,26.80
2018-04-14T10:44:02.139Z,26.80
2018-04-14T10:46:30.396Z,26.30
2018-04-14T10:48:57.975Z,26.30
2018-04-14T10:51:26.241Z,26.30
2018-04-14T10:53:53.811Z,26.20
2018-04-14T10:56:22.272Z,26.60
2018-04-14T10:58:49.760Z,26.60
2018-04-14T11:01:17.996Z,25.60
2018-04-14T11:03:45.492Z,25.50
2018-04-14T11:06:13.735Z,26.00
2018-04-14T11:08:41.216Z,26.00
2018-04-14T11:11:09.740Z,25.70
2018-04-14T11:13:37.214Z,25.60
2018-04-14T11:16:04.711Z,25.70
2018-04-14T11:18:32.962Z,26.40
2018-04-14T11:21:00.692Z,26.40
2018-04-14T11:23:28.183Z,26.60
2018-04-14T11:25:55.659Z,27.00
2018-04-14T11:28:23.152Z,27.10
2018-04-14T11:30:50.932Z,26.60
2018-04-14T11:33:18.444Z,26.70
2018-04-14T11:35:46.704Z,26.20
2018-04-14T11:38:14.184Z,26.20
2018-04-14T11:40:42.444Z,25.10
2018-04-14T11:43:10.161Z,25.10
2018-04-14T11:45:37.923Z,25.10
2018-04-14T11:48:05.683Z,24.90
2018-04-14T11:50:33.449Z,24.70
2018-04-14T11:53:00.973Z,24.30
2018-04-14T11:55:29.500Z,23.90
2018-04-14T11:57:56.976Z,23.80
2018-04-14T12:00:24.468Z,23.70
2018-04-14T12:02:52.759Z,23.80
2018-04-14T12:05:20.257Z,23.80
2018-04-14T12:07:47.999Z,24.10
2018-04-14T12:10:15.763Z,24.50
2018-04-14T12:12:43.300Z,25.10
2018-04-14T12:15:10.775Z,25.40
2018-04-14T12:17:38.259Z,25.50
2018-04-14T12:20:05.753Z,25.50
2018-04-14T12:22:34.000Z,25.00
2018-04-14T12:25:01.838Z,25.00
2018-04-14T12:27:29.599Z,24.60
2018-04-14T12:29:57.116Z,24.80
2018-04-14T12:32:25.360Z,25.00
2018-04-14T12:34:52.856Z,24.90
2018-04-14T12:37:21.120Z,24.80
2018-04-14T12:39:49.648Z,24.90
2018-04-14T12:42:17.355Z,24.90
2018-04-14T12:44:45.629Z,25.30
2018-04-14T12:47:14.852Z,25.70
2018-04-14T12:49:43.099Z,26.10
2018-04-14T12:52:10.572Z,26.10
2018-04-14T12:54:38.828Z,26.80
2018-04-14T12:57:06.299Z,26.70
2018-04-14T12:59:33.864Z,27.30
2018-04-14T13:02:02.181Z,27.80
2018-04-14T13:04:29.656Z,27.80
2018-04-14T13:06:57.372Z,28.10
2018-04-14T13:09:25.667Z,28.20
2018-04-14T13:11:53.180Z,28.30
2018-04-14T13:14:22.441Z,28.30
2018-04-14T13:16:49.916Z,28.30
2018-04-14T13:19:17.668Z,28.30
2018-04-14T13:21:45.147Z,28.10
2018-04-14T13:24:12.888Z,27.60
2018-04-14T13:26:40.391Z,27.10
2018-04-14T13:29:07.964Z,25.40
2018-04-14T13:31:36.203Z,24.30
2018-04-14T13:34:03.676Z,24.30
2018-04-14T13:36:31.497Z,24.10
2018-04-14T13:38:59.015Z,24.20
2018-04-14T13:41:27.285Z,24.10
2018-04-14T13:43:55.532Z,24.00
2018-04-14T13:46:23.008Z,24.00
2018-04-14T13:48:50.580Z,24.00
2018-04-14T13:51:18.823Z,24.20
2018-04-14T13:53:46.314Z,24.20
2018-04-14T13:56:14.556Z,24.30
2018-04-14T13:58:42.058Z,24.30
2018-04-14T14:01:09.604Z,24.10
2018-04-14T14:03:37.848Z,23.60
2018-04-14T14:06:05.335Z,23.50
2018-04-14T14:08:33.652Z,23.50
2018-04-14T14:11:01.164Z,23.40
2018-04-14T14:13:28.642Z,23.50
2018-04-14T14:15:56.120Z,23.20
2018-04-14T14:18:23.616Z,22.90
2018-04-14T14:20:51.087Z,22.90
2018-04-14T14:23:19.623Z,22.90
2018-04-14T14:25:47.139Z,22.80
2018-04-14T14:28:15.379Z,22.50
2018-04-14T14:30:42.868Z,22.50
2018-04-14T14:33:11.122Z,22.70
2018-04-14T14:35:38.619Z,22.70
2018-04-14T14:38:06.096Z,22.00
2018-04-14T14:40:33.572Z,21.50
2018-04-14T14:43:01.078Z,21.50
2018-04-14T14:45:29.315Z,21.60
2018-04-14T14:47:56.820Z,21.60
2018-04-14T14:50:28.864Z,21.60
2018-04-14T14:52:56.364Z,21.60
2018-04-14T14:55:24.136Z,21.50
2018-04-14T14:57:51.619Z,21.60
2018-04-14T15:00:19.112Z,21.40
2018-04-14T15:02:47.398Z,21.40
2018-04-14T15:05:14.868Z,21.30
2018-04-14T15:07:42.355Z,21.20
2018-04-14T15:10:09.828Z,21.00
2018-04-14T15:12:37.351Z,20.90
2018-04-14T15:15:05.016Z,21.00
2018-04-14T15:17:32.814Z,21.10
2018-04-14T15:20:00.542Z,21.20
2018-04-14T15:22:28.145Z,20.90
2018-04-14T15:24:55.639Z,21.00
2018-04-14T15:27:23.124Z,21.10
2018-04-14T15:29:50.861Z,21.10
2018-04-14T15:32:18.651Z,21.10
2018-04-14T15:34:46.148Z,20.90
2018-04-14T15:37:13.837Z,20.90
2018-04-14T15:39:42.080Z,21.00
2018-04-14T15:42:09.658Z,20.90
2018-04-14T15:44:37.932Z,21.00
2018-04-14T15:47:06.209Z,21.10
2018-04-14T15:49:34.467Z,21.30
2018-04-14T15:52:01.948Z,21.30
2018-04-14T15:54:30.204Z,21.50
2018-04-14T15:56:58.447Z,21.40
2018-04-14T15:59:25.944Z,21.40
2018-04-14T16:01:53.547Z,21.40
2018-04-14T16:04:21.086Z,21.30
2018-04-14T16:06:48.564Z,21.10
2018-04-14T16:09:16.057Z,21.00
2018-04-14T16:11:43.641Z,20.70
2018-04-14T16:14:11.895Z,20.40
2018-04-14T16:16:39.367Z,20.40
2018-04-14T16:19:06.860Z,20.40
2018-04-14T16:21:34.335Z,20.40
2018-04-14T16:24:01.852Z,20.40
2018-04-14T16:26:30.108Z,20.40
2018-04-14T16:28:57.620Z,20.30
2018-04-14T16:31:25.144Z,20.20
2018-04-14T16:33:53.608Z,19.80
2018-04-14T16:36:21.080Z,19.80
2018-04-14T16:38:49.343Z,19.70
2018-04-14T16:41:16.921Z,19.70
2018-04-14T16:43:45.188Z,19.40
2018-04-14T16:46:13.427Z,19.40
2018-04-14T16:48:40.921Z,19.40
2018-04-14T16:51:09.197Z,19.30
2018-04-14T16:53:37.724Z,19.10
2018-04-14T16:56:05.217Z,19.00
2018-04-14T16:58:32.699Z,18.80
2018-04-14T17:01:00.966Z,18.60
2018-04-14T17:03:28.444Z,18.60
2018-04-14T17:05:55.985Z,18.50
2018-04-14T17:08:24.251Z,18.30
2018-04-14T17:10:51.967Z,18.30
2018-04-14T17:13:19.468Z,18.30
2018-04-14T17:15:47.192Z,18.20
2018-04-14T17:18:14.667Z,18.20
2018-04-14T17:20:42.159Z,18.20
2018-04-14T17:23:10.413Z,18.10
2018-04-14T17:25:39.411Z,18.10
2018-04-14T17:28:06.983Z,18.10
2018-04-14T17:30:34.692Z,18.10
2018-04-14T17:33:02.183Z,18.00
2018-04-14T17:35:29.915Z,18.00
2018-04-14T17:37:57.429Z,17.80
2018-04-14T17:40:25.672Z,17.60
2018-04-14T17:42:53.155Z,17.60
2018-04-14T17:45:20.652Z,17.50
2018-04-14T17:47:48.180Z,17.40
2018-04-14T17:50:16.440Z,17.40
2018-04-14T17:52:44.840Z,17.40
2018-04-14T17:55:13.080Z,17.20
2018-04-14T17:57:40.573Z,17.20
2018-04-14T18:00:08.057Z,17.10
2018-04-14T18:02:35.575Z,17.00
2018-04-14T18:05:03.051Z,16.90
2018-04-14T18:07:31.297Z,17.00
2018-04-14T18:09:58.813Z,16.90
2018-04-14T18:12:26.287Z,17.00
2018-04-14T18:14:53.792Z,16.90
2018-04-14T18:17:22.033Z,16.80
2018-04-14T18:19:49.520Z,16.80
2018-04-14T18:22:17.784Z,16.70
2018-04-14T18:24:45.285Z,16.70
2018-04-14T18:27:12.810Z,16.60
2018-04-14T18:29:41.056Z,16.40
2018-04-14T18:32:08.532Z,16.40
2018-04-14T18:34:36.026Z,16.40
2018-04-14T18:37:03.563Z,16.30
2018-04-14T18:39:31.868Z,16.20
2018-04-14T18:41:59.331Z,16.10
2018-04-14T18:44:26.804Z,16.10
2018-04-14T18:46:54.556Z,16.00
2018-04-14T18:49:22.075Z,15.90
2018-04-14T18:51:50.327Z,15.60
2018-04-14T18:54:17.803Z,15.60
2018-04-14T18:56:46.325Z,15.40
2018-04-14T18:59:13.836Z,15.40
2018-04-14T19:01:41.314Z,15.40
2018-04-14T19:04:08.857Z,15.40
2018-04-14T19:06:37.404Z,15.30
2018-04-14T19:09:05.924Z,15.30
2018-04-14T19:11:34.179Z,15.30
2018-04-14T19:14:01.655Z,15.30
2018-04-14T19:16:29.917Z,15.20
2018-04-14T19:18:57.736Z,15.20
2018-04-14T19:21:25.223Z,15.10
2018-04-14T19:23:52.699Z,15.00
2018-04-14T19:26:20.271Z,15.10
2018-04-14T19:28:48.548Z,15.10
2018-04-14T19:31:16.808Z,15.10
2018-04-14T19:33:44.284Z,15.00
2018-04-14T19:36:12.543Z,15.00
2018-04-14T19:38:40.116Z,15.00
2018-04-14T19:41:08.364Z,14.90
2018-04-14T19:43:35.856Z,14.90
2018-04-14T19:46:04.096Z,14.60
2018-04-14T19:48:31.629Z,14.60
2018-04-14T19:50:59.091Z,14.60
2018-04-14T19:53:26.844Z,14.50
2018-04-14T19:55:54.535Z,14.50
2018-04-14T19:58:22.037Z,14.50
2018-04-14T20:00:50.005Z,14.40
2018-04-14T20:03:17.499Z,14.40
2018-04-14T20:05:45.196Z,14.30
2018-04-14T20:08:13.135Z,14.30
2018-04-14T20:10:40.612Z,14.20
2018-04-14T20:13:08.869Z,14.20
2018-04-14T20:15:36.370Z,14.20
2018-04-14T20:18:04.613Z,14.20
2018-04-14T20:20:32.164Z,14.20
2018-04-14T20:22:59.636Z,14.10
2018-04-14T20:25:27.877Z,13.60
2018-04-14T20:27:55.391Z,13.60
2018-04-14T20:30:23.813Z,13.10
2018-04-14T20:32:51.323Z,13.10
2018-04-14T20:35:19.571Z,12.80
2018-04-14T20:37:47.059Z,12.70
2018-04-14T20:40:15.335Z,12.60
2018-04-14T20:42:43.612Z,12.60
2018-04-14T20:45:11.872Z,12.60
2018-04-14T20:47:39.791Z,12.60
2018-04-14T20:50:07.416Z,12.60
2018-04-14T20:52:36.772Z,12.70
2018-04-14T20:55:04.516Z,12.70
2018-04-14T20:57:33.099Z,12.60
2018-04-14T21:00:00.867Z,12.60
2018-04-14T21:02:28.935Z,12.40
2018-04-14T21:04:57.465Z,12.20
2018-04-14T21:07:25.703Z,12.20
2018-04-14T21:09:53.182Z,12.20
2018-04-14T21:12:20.916Z,12.30
2018-04-14T21:14:48.674Z,12.60
2018-04-14T21:17:16.234Z,12.70
2018-04-14T21:19:43.736Z,12.70
2018-04-14T21:22:12.718Z,13.10
2018-04-14T21:24:41.272Z,13.30
2018-04-14T21:27:09.192Z,13.20
2018-04-14T21:29:37.475Z,13.40
2018-04-14T21:32:05.715Z,13.40
2018-04-14T21:34:33.451Z,13.40
2018-04-14T21:37:00.941Z,13.60
2018-04-14T21:39:29.931Z,13.60
2018-04-14T21:41:57.430Z,13.50
2018-04-14T21:44:24.913Z,13.70
2018-04-14T21:46:52.652Z,13.60
2018-04-14T21:49:20.907Z,13.70
2018-04-14T21:51:49.183Z,13.70
2018-04-14T21:54:16.676Z,13.70
2018-04-14T21:56:44.452Z,13.70
2018-04-14T21:59:11.964Z,13.80
2018-04-14T22:01:39.565Z,13.70
2018-04-14T22:04:07.085Z,13.60
2018-04-14T22:06:35.348Z,13.50
2018-04-14T22:09:02.828Z,13.40
2018-04-14T22:11:31.067Z,13.60
2018-04-14T22:13:58.559Z,13.60
2018-04-14T22:16:27.025Z,13.70
2018-04-14T22:18:54.499Z,13.70
2018-04-14T22:21:22.756Z,13.70
2018-04-14T22:23:50.236Z,13.70
2018-04-14T22:26:18.479Z,13.70
2018-04-14T22:28:45.972Z,13.70
2018-04-14T22:31:13.447Z,13.80
2018-04-14T22:33:40.975Z,13.70
2018-04-14T22:36:09.283Z,13.70
2018-04-14T22:38:36.775Z,13.60
2018-04-14T22:41:04.298Z,13.50
2018-04-14T22:43:31.793Z,13.50
2018-04-14T22:45:59.268Z,13.60
2018-04-14T22:48:26.760Z,13.60
2018-04-14T22:50:54.291Z,13.60
2018-04-14T22:53:22.529Z,13.70
2018-04-14T22:55:50.124Z,13.70
2018-04-14T22:58:18.368Z,13.60
2018-04-14T23:00:45.865Z,13.50
2018-04-14T23:03:14.107Z,13.60
2018-04-14T23:05:41.580Z,13.50
2018-04-14T23:08:09.156Z,13.50
2018-04-14T23:10:37.403Z,13.40
2018-04-14T23:13:04.899Z,13.40
2018-04-14T23:15:33.407Z,13.10
2018-04-14T23:18:01.178Z,13.10
2018-04-14T23:20:28.668Z,12.90
2018-04-14T23:22:57.928Z,12.50
2018-04-14T23:25:25.693Z,12.50
2018-04-14T23:27:53.168Z,12.40
2018-04-14T23:30:20.703Z,12.30
2018-04-14T23:32:48.927Z,12.00
2018-04-14T23:35:17.168Z,11.90
2018-04-14T23:37:44.663Z,11.90
2018-04-14T23:40:12.141Z,11.80
2018-04-14T23:42:39.683Z,11.80
2018-04-14T23:45:07.940Z,11.70
2018-04-14T23:47:35.419Z,11.60
2018-04-14T23:50:03.678Z,11.50
2018-04-14T23:52:32.684Z,11.40
2018-04-14T23:55:00.947Z,11.30
2018-04-14T23:57:29.555Z,11.10
2018-04-14T23:59:57.795Z,11.00
